Time,TemperatureF,DewpointF,PressureIn,WindDirection,WindDirectionDegrees,WindSpeedMPH,WindSpeedGustMPH,Humidity,HourlyPrecipIn,Conditions,Clouds,dailyrainin,SoftwareType,DateUTC
2013-05-02 00:03:00,60.6,40.8,30.33,SW,225,2.0,5.6,48,0.00,,OVC047,0.00,VWS V14.01,2013-05-02 04:03:00,
2013-05-02 00:08:00,60.3,41.0,30.33,NNW,338,2.0,3.6,49,0.00,,OVC047,0.00,VWS V14.01,2013-05-02 04:08:00,
2013-05-02 00:13:00,60.3,41.0,30.33,SSW,202,2.5,3.6,49,0.00,,OVC047,0.00,VWS V14.01,2013-05-02 04:13:00,
2013-05-02 00:18:00,60.1,41.4,30.30,SW,225,2.7,4.7,50,0.00,,OVC047,0.00,VWS V14.01,2013-05-02 04:18:00,
2013-05-02 00:23:00,60.1,41.9,30.30,West,270,2.5,4.0,51,0.00,,OVC047,0.00,VWS V14.01,2013-05-02 04:23:00,
2013-05-02 00:28:00,60.1,41.9,30.30,South,180,3.6,4.5,51,0.00,,OVC047,0.00,VWS V14.01,2013-05-02 04:28:00,
2013-05-02 00:33:00,59.9,42.2,30.30,WNW,292,2.2,3.6,52,0.00,,OVC047,0.00,VWS V14.01,2013-05-02 04:33:00,
2013-05-02 00:38:00,59.9,42.7,30.30,South,180,4.3,8.1,53,0.00,,OVC047,0.00,VWS V14.01,2013-05-02 04:38:00,
2013-05-02 00:43:00,59.7,42.6,30.30,ESE,112,4.3,8.1,53,0.00,,OVC047,0.00,VWS V14.01,2013-05-02 04:43:00,
2013-05-02 00:48:00,59.4,43.2,30.30,SE,135,2.9,4.0,55,0.00,,OVC047,0.00,VWS V14.01,2013-05-02 04:48:00,
2013-05-02 00:53:00,59.2,42.6,30.30,SW,225,2.0,2.9,54,0.00,,OVC047,0.00,VWS V14.01,2013-05-02 04:53:00,
2013-05-02 00:58:00,59.0,42.9,30.30,SW,225,3.4,5.8,55,0.00,,OVC047,0.00,VWS V14.01,2013-05-02 04:58:00,
2013-05-02 01:03:00,58.8,43.2,30.33,SSW,202,1.3,3.6,56,0.00,,OVC041,0.00,VWS V14.01,2013-05-02 05:03:00,
2013-05-02 01:08:00,58.8,43.6,30.33,SW,225,2.2,5.6,57,0.00,,OVC041,0.00,VWS V14.01,2013-05-02 05:08:00,
2013-05-02 01:13:00,58.6,43.5,30.33,SW,225,1.1,1.3,57,0.00,,OVC041,0.00,VWS V14.01,2013-05-02 05:13:00,
2013-05-02 01:18:00,58.3,42.7,30.33,South,180,1.6,1.6,56,0.00,,OVC041,0.00,VWS V14.01,2013-05-02 05:18:00,
2013-05-02 01:23:00,58.3,44.0,30.33,SW,225,1.1,4.3,59,0.00,,OVC041,0.00,VWS V14.01,2013-05-02 05:23:00,
2013-05-02 01:28:00,58.3,44.5,30.33,NW,315,3.4,3.4,60,0.00,,OVC041,0.00,VWS V14.01,2013-05-02 05:28:00,
2013-05-02 01:33:00,58.5,44.2,30.33,South,180,0.0,3.4,59,0.00,,OVC041,0.00,VWS V14.01,2013-05-02 05:33:00,
2013-05-02 01:38:00,58.5,44.2,30.33,WSW,248,2.5,4.0,59,0.00,,OVC041,0.00,VWS V14.01,2013-05-02 05:38:00,
2013-05-02 01:43:00,58.3,44.0,30.33,SW,225,0.0,1.3,59,0.00,,OVC041,0.00,VWS V14.01,2013-05-02 05:43:00,
2013-05-02 01:48:00,58.1,43.4,30.33,NNW,338,2.5,2.5,58,0.00,,OVC041,0.00,VWS V14.01,2013-05-02 05:48:00,
2013-05-02 01:53:00,57.9,43.2,30.33,South,180,4.3,4.3,58,0.00,,OVC041,0.00,VWS V14.01,2013-05-02 05:53:00,
2013-05-02 01:58:00,58.1,43.9,30.33,SW,225,0.0,1.3,59,0.00,,OVC041,0.00,VWS V14.01,2013-05-02 05:58:00,
2013-05-02 02:03:00,57.9,44.1,30.33,SW,225,2.0,3.4,60,0.00,,OVC041,0.00,VWS V14.01,2013-05-02 06:03:00,
2013-05-02 02:08:00,57.9,43.7,30.33,SW,225,1.3,1.3,59,0.00,,OVC041,0.00,VWS V14.01,2013-05-02 06:08:00,
2013-05-02 02:13:00,57.9,44.1,30.33,SE,135,2.7,2.7,60,0.00,,OVC041,0.00,VWS V14.01,2013-05-02 06:13:00,
2013-05-02 02:18:00,57.9,44.1,30.33,SSE,158,0.0,2.9,60,0.00,,OVC041,0.00,VWS V14.01,2013-05-02 06:18:00,
2013-05-02 02:23:00,57.9,43.7,30.33,WSW,248,1.6,1.6,59,0.00,,OVC041,0.00,VWS V14.01,2013-05-02 06:23:00,
2013-05-02 02:28:00,57.9,44.1,30.33,SSE,158,0.0,1.3,60,0.00,,OVC041,0.00,VWS V14.01,2013-05-02 06:28:00,
2013-05-02 02:33:00,57.9,44.6,30.33,NW,315,4.0,4.9,61,0.00,,OVC041,0.00,VWS V14.01,2013-05-02 06:33:00,
2013-05-02 02:38:00,57.9,44.6,30.33,SW,225,3.1,3.1,61,0.00,,OVC041,0.00,VWS V14.01,2013-05-02 06:38:00,
2013-05-02 02:43:00,57.7,44.8,30.33,SW,225,0.9,0.9,62,0.00,,OVC041,0.00,VWS V14.01,2013-05-02 06:43:00,
2013-05-02 02:48:00,57.7,44.8,30.33,SSW,202,2.9,7.6,62,0.00,,OVC041,0.00,VWS V14.01,2013-05-02 06:48:00,
2013-05-02 02:53:00,57.7,44.8,30.33,NW,315,3.6,6.5,62,0.00,,OVC041,0.00,VWS V14.01,2013-05-02 06:53:00,
2013-05-02 02:58:00,57.7,45.2,30.33,SSW,202,3.6,4.3,63,0.00,,OVC041,0.00,VWS V14.01,2013-05-02 06:58:00,
2013-05-02 03:10:00,57.6,45.1,30.30,ESE,112,3.6,6.0,63,0.00,,OVC043,0.00,VWS V14.01,2013-05-02 07:10:00,
2013-05-02 03:15:00,57.0,44.1,30.30,West,270,1.1,2.7,62,0.00,,OVC043,0.00,VWS V14.01,2013-05-02 07:15:00,
2013-05-02 03:20:00,56.7,44.2,30.30,SW,225,2.0,2.7,63,0.00,,OVC043,0.00,VWS V14.01,2013-05-02 07:20:00,
2013-05-02 03:25:00,56.5,44.5,30.30,ESE,112,2.0,2.5,64,0.00,,OVC043,0.00,VWS V14.01,2013-05-02 07:25:00,
2013-05-02 03:30:00,56.7,45.0,30.33,South,180,0.9,4.7,65,0.00,,OVC043,0.00,VWS V14.01,2013-05-02 07:30:00,
2013-05-02 03:35:00,56.7,45.0,30.33,NE,45,2.7,3.1,65,0.00,,OVC043,0.00,VWS V14.01,2013-05-02 07:35:00,
2013-05-02 03:40:00,56.7,45.8,30.33,East,90,0.0,4.9,67,0.00,,OVC043,0.00,VWS V14.01,2013-05-02 07:40:00,
2013-05-02 03:45:00,56.5,45.7,30.33,South,180,4.3,4.3,67,0.00,,OVC043,0.00,VWS V14.01,2013-05-02 07:45:00,
2013-05-02 03:50:00,55.9,44.8,30.33,ENE,68,1.6,2.0,66,0.00,,OVC043,0.00,VWS V14.01,2013-05-02 07:50:00,
2013-05-02 03:55:00,55.9,45.2,30.33,South,180,2.5,3.6,67,0.00,,OVC043,0.00,VWS V14.01,2013-05-02 07:55:00,
2013-05-02 04:00:00,55.9,45.5,30.30,SE,135,1.3,5.6,68,0.00,,OVC023,0.00,VWS V14.01,2013-05-02 08:00:00,
2013-05-02 04:05:00,55.8,45.4,30.30,South,180,1.6,3.6,68,0.00,,OVC023,0.00,VWS V14.01,2013-05-02 08:05:00,
2013-05-02 04:10:00,55.8,45.4,30.30,West,270,0.0,2.0,68,0.00,,OVC023,0.00,VWS V14.01,2013-05-02 08:10:00,
2013-05-02 04:15:00,55.9,45.5,30.30,SSW,202,1.6,2.7,68,0.00,,OVC023,0.00,VWS V14.01,2013-05-02 08:15:00,
2013-05-02 04:20:00,55.9,45.9,30.30,SSW,202,2.0,3.6,69,0.00,,OVC023,0.00,VWS V14.01,2013-05-02 08:20:00,
2013-05-02 04:25:00,55.9,45.5,30.30,SW,225,0.0,0.0,68,0.00,,OVC023,0.00,VWS V14.01,2013-05-02 08:25:00,
2013-05-02 04:30:00,55.8,45.4,30.30,NW,315,0.9,3.1,68,0.00,,OVC023,0.00,VWS V14.01,2013-05-02 08:30:00,
2013-05-02 04:35:00,55.9,45.5,30.30,South,180,0.0,2.0,68,0.00,,OVC023,0.00,VWS V14.01,2013-05-02 08:35:00,
2013-05-02 04:40:00,55.9,45.5,30.30,East,90,0.0,3.6,68,0.00,,OVC023,0.00,VWS V14.01,2013-05-02 08:40:00,
2013-05-02 04:45:00,55.8,45.4,30.30,South,180,2.9,3.1,68,0.00,,OVC023,0.00,VWS V14.01,2013-05-02 08:45:00,
2013-05-02 04:50:00,55.8,45.8,30.30,West,270,1.6,2.7,69,0.00,,OVC023,0.00,VWS V14.01,2013-05-02 08:50:00,
2013-05-02 04:55:00,55.6,45.6,30.30,West,270,1.3,2.7,69,0.00,,OVC023,0.00,VWS V14.01,2013-05-02 08:55:00,
2013-05-02 05:00:00,55.4,45.8,30.30,SSW,202,2.7,3.6,70,0.00,,BKN017,0.00,VWS V14.01,2013-05-02 09:00:00,
2013-05-02 05:05:00,55.2,45.6,30.30,SSW,202,2.2,6.5,70,0.00,,BKN017,0.00,VWS V14.01,2013-05-02 09:05:00,
2013-05-02 05:10:00,55.0,45.8,30.30,SSW,202,1.3,2.9,71,0.00,,BKN017,0.00,VWS V14.01,2013-05-02 09:10:00,
2013-05-02 05:15:00,54.9,45.3,30.30,SW,225,1.3,2.7,70,0.00,,BKN017,0.00,VWS V14.01,2013-05-02 09:15:00,
2013-05-02 05:20:00,54.9,45.3,30.30,SW,225,0.0,1.1,70,0.00,,BKN017,0.00,VWS V14.01,2013-05-02 09:20:00,
2013-05-02 05:25:00,55.0,46.2,30.30,SSE,158,0.9,3.4,72,0.00,,BKN017,0.00,VWS V14.01,2013-05-02 09:25:00,
2013-05-02 05:30:00,54.9,45.7,30.30,SSW,202,0.9,2.5,71,0.00,,BKN017,0.00,VWS V14.01,2013-05-02 09:30:00,
2013-05-02 05:35:00,55.0,45.8,30.30,South,180,0.0,2.5,71,0.00,,BKN017,0.00,VWS V14.01,2013-05-02 09:35:00,
2013-05-02 05:40:00,54.9,45.3,30.30,NNE,22,0.0,2.7,70,0.00,,BKN017,0.00,VWS V14.01,2013-05-02 09:40:00,
2013-05-02 05:45:00,54.7,45.1,30.30,SW,225,0.0,0.0,70,0.00,,BKN017,0.00,VWS V14.01,2013-05-02 09:45:00,
2013-05-02 05:50:00,54.7,45.1,30.30,NW,315,1.3,3.6,70,0.00,,BKN017,0.00,VWS V14.01,2013-05-02 09:50:00,
2013-05-02 05:55:00,54.7,45.1,30.30,SSW,202,1.6,2.7,70,0.00,,BKN017,0.00,VWS V14.01,2013-05-02 09:55:00,
2013-05-02 06:00:00,54.7,45.5,30.30,SE,135,2.5,3.6,71,0.00,,SCT021,0.00,VWS V14.01,2013-05-02 10:00:00,
2013-05-02 06:05:00,54.7,45.1,30.30,SSW,202,1.3,2.9,70,0.00,,SCT021,0.00,VWS V14.01,2013-05-02 10:05:00,
2013-05-02 06:10:00,54.7,44.7,30.30,SSE,158,4.0,4.0,69,0.00,,SCT021,0.00,VWS V14.01,2013-05-02 10:10:00,
2013-05-02 06:15:00,54.7,44.7,30.33,North,0,2.9,2.9,69,0.00,,SCT021,0.00,VWS V14.01,2013-05-02 10:15:00,
2013-05-02 06:20:00,54.7,44.7,30.33,East,90,1.3,3.8,69,0.00,,SCT021,0.00,VWS V14.01,2013-05-02 10:20:00,
2013-05-02 06:25:00,54.5,44.2,30.33,NW,315,2.5,2.5,68,0.00,,SCT021,0.00,VWS V14.01,2013-05-02 10:25:00,
2013-05-02 06:30:00,54.3,44.0,30.33,NW,315,0.9,1.6,68,0.00,,SCT021,0.00,VWS V14.01,2013-05-02 10:30:00,
2013-05-02 06:35:00,54.1,43.8,30.33,East,90,1.3,2.5,68,0.00,,SCT021,0.00,VWS V14.01,2013-05-02 10:35:00,
2013-05-02 06:40:00,54.1,43.8,30.33,South,180,0.0,0.0,68,0.00,,SCT021,0.00,VWS V14.01,2013-05-02 10:40:00,
2013-05-02 06:45:00,54.3,44.0,30.33,SSW,202,2.0,2.0,68,0.00,,SCT021,0.00,VWS V14.01,2013-05-02 10:45:00,
2013-05-02 06:50:00,54.3,44.0,30.33,NW,315,2.5,2.5,68,0.00,,SCT021,0.00,VWS V14.01,2013-05-02 10:50:00,
2013-05-02 06:55:00,54.3,44.4,30.33,South,180,2.0,2.0,69,0.00,,SCT021,0.00,VWS V14.01,2013-05-02 10:55:00,
2013-05-02 07:00:00,54.5,44.5,30.33,SW,225,0.0,2.9,69,0.00,,SCT021,0.00,VWS V14.01,2013-05-02 11:00:00,
2013-05-02 07:05:00,54.7,44.3,30.33,SW,225,0.0,2.5,68,0.00,,SCT021,0.00,VWS V14.01,2013-05-02 11:05:00,
2013-05-02 07:10:00,54.7,44.3,30.33,West,270,0.0,1.3,68,0.00,,SCT021,0.00,VWS V14.01,2013-05-02 11:10:00,
2013-05-02 07:15:00,54.7,44.0,30.33,SW,225,1.3,2.9,67,0.00,,SCT021,0.00,VWS V14.01,2013-05-02 11:15:00,
2013-05-02 07:26:00,54.9,44.1,30.33,South,180,2.0,2.0,67,0.00,,SCT021,0.00,VWS V14.01,2013-05-02 11:26:00,
2013-05-02 07:31:00,55.0,44.3,30.33,SE,135,0.9,2.0,67,0.00,,CLR,0.00,VWS V14.01,2013-05-02 11:31:00,
2013-05-02 07:36:00,55.2,44.5,30.33,NW,315,2.2,2.9,67,0.00,,CLR,0.00,VWS V14.01,2013-05-02 11:36:00,
2013-05-02 07:41:00,55.6,44.4,30.33,WSW,248,0.0,2.0,66,0.00,,CLR,0.00,VWS V14.01,2013-05-02 11:41:00,
2013-05-02 07:46:00,55.9,44.8,30.33,East,90,1.6,2.5,66,0.00,,CLR,0.00,VWS V14.01,2013-05-02 11:46:00,
2013-05-02 07:51:00,56.1,44.9,30.33,North,0,3.4,3.4,66,0.00,,CLR,0.00,VWS V14.01,2013-05-02 11:51:00,
2013-05-02 07:56:00,56.7,45.0,30.33,West,270,0.0,2.2,65,0.00,,CLR,0.00,VWS V14.01,2013-05-02 11:56:00,
2013-05-02 08:01:00,56.8,45.2,30.33,SW,225,0.0,2.5,65,0.00,,CLR,0.00,VWS V14.01,2013-05-02 12:01:00,
2013-05-02 08:06:00,57.2,45.2,30.33,South,180,1.6,2.0,64,0.00,,CLR,0.00,VWS V14.01,2013-05-02 12:06:00,
2013-05-02 08:11:00,57.7,45.2,30.33,West,270,2.7,2.7,63,0.00,,CLR,0.00,VWS V14.01,2013-05-02 12:11:00,
2013-05-02 08:16:00,58.1,45.2,30.33,West,270,1.6,3.1,62,0.00,,CLR,0.00,VWS V14.01,2013-05-02 12:16:00,
2013-05-02 08:20:00,58.3,44.9,30.33,West,270,2.2,3.8,61,0.00,,CLR,0.00,VWS V14.01,2013-05-02 12:20:00,
2013-05-02 08:25:00,58.5,43.3,30.33,South,180,3.1,7.6,57,0.00,,CLR,0.00,VWS V14.01,2013-05-02 12:25:00,
2013-05-02 08:30:00,58.8,44.1,30.30,SSE,158,2.9,8.1,58,0.00,,CLR,0.00,VWS V14.01,2013-05-02 12:30:00,
2013-05-02 08:35:00,59.2,44.0,30.30,SE,135,5.4,7.6,57,0.00,,CLR,0.00,VWS V14.01,2013-05-02 12:35:00,
2013-05-02 08:40:00,59.7,44.5,30.30,SE,135,3.4,5.6,57,0.00,,CLR,0.00,VWS V14.01,2013-05-02 12:40:00,
2013-05-02 08:45:00,59.7,43.5,30.30,South,180,2.5,4.0,55,0.00,,CLR,0.00,VWS V14.01,2013-05-02 12:45:00,
2013-05-02 08:50:00,60.4,44.2,30.30,SW,225,0.0,3.8,55,0.00,,CLR,0.00,VWS V14.01,2013-05-02 12:50:00,
2013-05-02 08:55:00,60.6,43.9,30.30,South,180,3.4,6.7,54,0.00,,CLR,0.00,VWS V14.01,2013-05-02 12:55:00,
2013-05-02 09:00:00,61.0,43.2,30.30,SSW,202,4.0,4.0,52,0.00,,CLR,0.00,VWS V14.01,2013-05-02 13:00:00,
2013-05-02 09:05:00,61.0,42.7,30.30,SSE,158,2.9,6.5,51,0.00,,CLR,0.00,VWS V14.01,2013-05-02 13:05:00,
2013-05-02 09:10:00,61.3,43.1,30.30,South,180,1.1,3.8,51,0.00,,CLR,0.00,VWS V14.01,2013-05-02 13:10:00,
2013-05-02 09:15:00,61.5,42.7,30.33,South,180,2.7,3.8,50,0.00,,CLR,0.00,VWS V14.01,2013-05-02 13:15:00,
2013-05-02 09:20:00,61.9,43.1,30.33,WSW,248,2.7,5.4,50,0.00,,CLR,0.00,VWS V14.01,2013-05-02 13:20:00,
2013-05-02 09:25:00,62.1,42.7,30.33,South,180,4.5,6.7,49,0.00,,CLR,0.00,VWS V14.01,2013-05-02 13:25:00,
2013-05-02 09:30:00,61.7,41.8,30.33,SSW,202,7.8,10.5,48,0.00,,CLR,0.00,VWS V14.01,2013-05-02 13:30:00,
2013-05-02 09:35:00,61.2,40.8,30.33,West,270,5.6,10.7,47,0.00,,CLR,0.00,VWS V14.01,2013-05-02 13:35:00,
2013-05-02 09:40:00,61.5,42.2,30.33,SW,225,4.9,7.8,49,0.00,,CLR,0.00,VWS V14.01,2013-05-02 13:40:00,
2013-05-02 09:45:00,61.9,41.5,30.33,West,270,4.0,6.7,47,0.00,,CLR,0.00,VWS V14.01,2013-05-02 13:45:00,
2013-05-02 09:50:00,61.7,41.3,30.33,East,90,2.9,7.4,47,0.00,,CLR,0.00,VWS V14.01,2013-05-02 13:50:00,
2013-05-02 09:55:00,62.4,41.9,30.33,SE,135,4.9,6.0,47,0.00,,CLR,0.00,VWS V14.01,2013-05-02 13:55:00,
2013-05-02 10:00:00,62.4,41.4,30.33,SE,135,2.7,6.5,46,0.00,,CLR,0.00,VWS V14.01,2013-05-02 14:00:00,
2013-05-02 10:05:00,62.8,41.7,30.33,SSW,202,3.6,6.5,46,0.00,,CLR,0.00,VWS V14.01,2013-05-02 14:05:00,
2013-05-02 10:10:00,63.1,42.6,30.33,SSW,202,3.4,6.7,47,0.00,,CLR,0.00,VWS V14.01,2013-05-02 14:10:00,
2013-05-02 10:15:00,64.0,42.3,30.33,South,180,4.9,5.8,45,0.00,,CLR,0.00,VWS V14.01,2013-05-02 14:15:00,
2013-05-02 10:20:00,63.5,41.2,30.33,SSW,202,3.6,7.8,44,0.00,,CLR,0.00,VWS V14.01,2013-05-02 14:20:00,
2013-05-02 10:25:00,63.5,42.4,30.33,SSW,202,4.9,6.0,46,0.00,,CLR,0.00,VWS V14.01,2013-05-02 14:25:00,
2013-05-02 10:30:00,63.5,42.4,30.30,WSW,248,2.7,4.9,46,0.00,,CLR,0.00,VWS V14.01,2013-05-02 14:30:00,
2013-05-02 10:35:00,64.0,42.9,30.30,South,180,2.9,6.0,46,0.00,,CLR,0.00,VWS V14.01,2013-05-02 14:35:00,
2013-05-02 10:40:00,64.8,42.4,30.30,South,180,2.0,7.6,44,0.00,,CLR,0.00,VWS V14.01,2013-05-02 14:40:00,
2013-05-02 10:45:00,65.3,42.8,30.33,South,180,10.1,10.1,44,0.00,,CLR,0.00,VWS V14.01,2013-05-02 14:45:00,
2013-05-02 10:50:00,64.8,42.4,30.33,South,180,8.5,12.1,44,0.00,,CLR,0.00,VWS V14.01,2013-05-02 14:50:00,
2013-05-02 10:55:00,65.3,42.8,30.33,South,180,8.1,8.1,44,0.00,,CLR,0.00,VWS V14.01,2013-05-02 14:55:00,
2013-05-02 11:00:00,65.8,43.9,30.33,SSW,202,3.1,6.0,45,0.00,,CLR,0.00,VWS V14.01,2013-05-02 15:00:00,
2013-05-02 11:05:00,66.4,43.8,30.33,South,180,4.3,5.6,44,0.00,,CLR,0.00,VWS V14.01,2013-05-02 15:05:00,
2013-05-02 11:10:00,66.6,43.4,30.33,SSE,158,6.5,10.1,43,0.00,,CLR,0.00,VWS V14.01,2013-05-02 15:10:00,
2013-05-02 11:15:00,65.8,42.1,30.33,ESE,112,7.8,8.5,42,0.00,,CLR,0.00,VWS V14.01,2013-05-02 15:15:00,
2013-05-02 11:20:00,66.4,42.6,30.33,SSW,202,3.4,7.6,42,0.00,,CLR,0.00,VWS V14.01,2013-05-02 15:20:00,
2013-05-02 11:25:00,67.8,44.5,30.33,SW,225,2.0,3.1,43,0.00,,CLR,0.00,VWS V14.01,2013-05-02 15:25:00,
2013-05-02 11:30:00,67.1,43.3,30.33,SE,135,5.8,6.5,42,0.00,,CLR,0.00,VWS V14.01,2013-05-02 15:30:00,
2013-05-02 11:35:00,67.6,44.4,30.33,ESE,112,4.0,5.6,43,0.00,,CLR,0.00,VWS V14.01,2013-05-02 15:35:00,
2013-05-02 11:40:00,67.6,44.4,30.33,South,180,6.0,9.6,43,0.00,,CLR,0.00,VWS V14.01,2013-05-02 15:40:00,
2013-05-02 11:45:00,69.4,45.4,30.33,WSW,248,1.1,3.1,42,0.00,,CLR,0.00,VWS V14.01,2013-05-02 15:45:00,
2013-05-02 11:50:00,69.1,45.0,30.33,WSW,248,6.3,7.6,42,0.00,,CLR,0.00,VWS V14.01,2013-05-02 15:50:00,
2013-05-02 11:55:00,68.7,44.7,30.33,SSW,202,5.8,10.5,42,0.00,,CLR,0.00,VWS V14.01,2013-05-02 15:55:00,
2013-05-02 12:00:00,70.0,45.2,30.33,ESE,112,2.5,6.5,41,0.00,,CLR,0.00,VWS V14.01,2013-05-02 16:00:00,
2013-05-02 12:05:00,71.8,46.2,30.33,West,270,3.1,7.4,40,0.00,,CLR,0.00,VWS V14.01,2013-05-02 16:05:00,
2013-05-02 12:10:00,73.2,46.8,30.33,SE,135,4.3,7.2,39,0.00,,CLR,0.00,VWS V14.01,2013-05-02 16:10:00,
2013-05-02 12:15:00,73.2,44.7,30.33,SSW,202,4.3,7.8,36,0.00,,CLR,0.00,VWS V14.01,2013-05-02 16:15:00,
2013-05-02 12:20:00,75.0,44.8,30.33,SSE,158,3.6,10.1,34,0.00,,CLR,0.00,VWS V14.01,2013-05-02 16:20:00,
2013-05-02 12:25:00,78.1,45.8,30.33,North,0,2.5,7.2,32,0.00,,CLR,0.00,VWS V14.01,2013-05-02 16:25:00,
2013-05-02 12:30:00,78.6,47.1,30.30,SSW,202,10.1,10.1,33,0.00,,CLR,0.00,VWS V14.01,2013-05-02 16:30:00,
2013-05-02 12:35:00,77.2,45.9,30.30,SW,225,5.4,9.8,33,0.00,,CLR,0.00,VWS V14.01,2013-05-02 16:35:00,
2013-05-02 12:40:00,77.2,44.2,30.30,ESE,112,3.1,9.8,31,0.00,,CLR,0.00,VWS V14.01,2013-05-02 16:40:00,
2013-05-02 12:45:00,79.3,47.0,30.33,SSW,202,4.3,6.3,32,0.00,,CLR,0.00,VWS V14.01,2013-05-02 16:45:00,
2013-05-02 12:50:00,77.4,45.2,30.33,SSE,158,4.0,8.1,32,0.00,,CLR,0.00,VWS V14.01,2013-05-02 16:50:00,
2013-05-02 12:55:00,77.7,46.3,30.33,South,180,3.1,9.6,33,0.00,,CLR,0.00,VWS V14.01,2013-05-02 16:55:00,
2013-05-02 13:00:00,79.3,46.1,30.33,South,180,1.3,7.8,31,0.00,,CLR,0.00,VWS V14.01,2013-05-02 17:00:00,
2013-05-02 13:05:00,80.1,46.7,30.33,South,180,2.9,6.0,31,0.00,,CLR,0.00,VWS V14.01,2013-05-02 17:05:00,
2013-05-02 13:10:00,81.1,46.8,30.33,SSW,202,6.0,6.0,30,0.00,,CLR,0.00,VWS V14.01,2013-05-02 17:10:00,
2013-05-02 13:15:00,79.5,46.3,30.30,SE,135,4.3,8.7,31,0.00,,CLR,0.00,VWS V14.01,2013-05-02 17:15:00,
2013-05-02 13:20:00,82.4,47.9,30.30,South,180,4.5,7.8,30,0.00,,CLR,0.00,VWS V14.01,2013-05-02 17:20:00,
2013-05-02 13:25:00,79.3,46.1,30.30,SSW,202,4.7,11.0,31,0.00,,CLR,0.00,VWS V14.01,2013-05-02 17:25:00,
2013-05-02 13:30:00,78.3,44.3,30.30,SSE,158,2.5,8.7,30,0.00,,CLR,0.00,VWS V14.01,2013-05-02 17:30:00,
2013-05-02 13:35:00,79.2,46.0,30.30,SSW,202,5.6,6.5,31,0.00,,CLR,0.00,VWS V14.01,2013-05-02 17:35:00,
2013-05-02 13:40:00,77.0,44.1,30.30,SW,225,2.7,6.5,31,0.00,,CLR,0.00,VWS V14.01,2013-05-02 17:40:00,
2013-05-02 13:45:00,75.9,44.0,30.27,WSW,248,1.3,5.8,32,0.00,,CLR,0.00,VWS V14.01,2013-05-02 17:45:00,
2013-05-02 13:50:00,74.5,43.5,30.27,SW,225,8.1,11.0,33,0.00,,CLR,0.00,VWS V14.01,2013-05-02 17:50:00,
2013-05-02 13:55:00,73.9,43.8,30.27,SW,225,4.0,6.3,34,0.00,,CLR,0.00,VWS V14.01,2013-05-02 17:55:00,
2013-05-02 14:00:00,73.8,44.4,30.30,SSW,202,4.3,6.5,35,0.00,,CLR,0.00,VWS V14.01,2013-05-02 18:00:00,
2013-05-02 14:05:00,73.0,44.5,30.30,ESE,112,2.9,8.5,36,0.00,,CLR,0.00,VWS V14.01,2013-05-02 18:05:00,
2013-05-02 14:10:00,72.5,44.8,30.30,SW,225,7.2,9.8,37,0.00,,CLR,0.00,VWS V14.01,2013-05-02 18:10:00,
2013-05-02 14:15:00,73.4,45.6,30.27,SSW,202,2.5,5.8,37,0.00,,CLR,0.00,VWS V14.01,2013-05-02 18:15:00,
2013-05-02 14:20:00,74.7,46.0,30.27,SSW,202,4.0,7.4,36,0.00,,CLR,0.00,VWS V14.01,2013-05-02 18:20:00,
2013-05-02 14:25:00,76.1,46.5,30.27,SW,225,3.6,6.7,35,0.00,,CLR,0.00,VWS V14.01,2013-05-02 18:25:00,
2013-05-02 14:30:00,78.4,47.0,30.27,SE,135,3.6,5.8,33,0.00,,CLR,0.00,VWS V14.01,2013-05-02 18:30:00,
2013-05-02 14:35:00,79.3,46.1,30.27,SSW,202,9.8,9.8,31,0.00,,CLR,0.00,VWS V14.01,2013-05-02 18:35:00,
2013-05-02 14:40:00,78.6,45.5,30.27,South,180,4.0,4.7,31,0.00,,CLR,0.00,VWS V14.01,2013-05-02 18:40:00,
2013-05-02 14:45:00,81.5,47.1,30.27,West,270,1.6,3.8,30,0.00,,CLR,0.00,VWS V14.01,2013-05-02 18:45:00,
2013-05-02 14:50:00,83.3,47.8,30.27,South,180,1.3,6.3,29,0.00,,CLR,0.00,VWS V14.01,2013-05-02 18:50:00,
2013-05-02 14:55:00,82.4,47.9,30.27,WSW,248,3.1,6.0,30,0.00,,CLR,0.00,VWS V14.01,2013-05-02 18:55:00,
2013-05-02 15:00:00,81.0,46.6,30.27,West,270,3.8,6.3,30,0.00,,CLR,0.00,VWS V14.01,2013-05-02 19:00:00,
2013-05-02 15:05:00,81.3,46.1,30.27,South,180,4.9,6.5,29,0.00,,CLR,0.00,VWS V14.01,2013-05-02 19:05:00,
2013-05-02 15:10:00,80.4,46.2,30.27,SW,225,2.5,6.3,30,0.00,,CLR,0.00,VWS V14.01,2013-05-02 19:10:00,
2013-05-02 15:15:00,81.5,47.1,30.27,NNW,338,1.6,6.3,30,0.00,,CLR,0.00,VWS V14.01,2013-05-02 19:15:00,
2013-05-02 15:20:00,81.3,47.0,30.27,NW,315,2.7,7.2,30,0.00,,CLR,0.00,VWS V14.01,2013-05-02 19:20:00,
2013-05-02 15:25:00,79.5,45.4,30.27,South,180,3.1,5.4,30,0.00,,CLR,0.00,VWS V14.01,2013-05-02 19:25:00,
2013-05-02 15:30:00,78.6,44.6,30.27,South,180,1.6,8.7,30,0.00,,CLR,0.00,VWS V14.01,2013-05-02 19:30:00,
2013-05-02 15:35:00,76.1,43.3,30.27,SSW,202,6.0,6.5,31,0.00,,CLR,0.00,VWS V14.01,2013-05-02 19:35:00,
2013-05-02 15:40:00,76.3,44.3,30.27,South,180,2.2,6.3,32,0.00,,CLR,0.00,VWS V14.01,2013-05-02 19:40:00,
2013-05-02 15:45:00,75.6,43.7,30.27,South,180,4.7,6.0,32,0.00,,CLR,0.00,VWS V14.01,2013-05-02 19:45:00,
2013-05-02 15:50:00,74.5,43.5,30.27,ENE,68,5.6,5.6,33,0.00,,CLR,0.00,VWS V14.01,2013-05-02 19:50:00,
2013-05-02 15:55:00,73.6,44.3,30.27,South,180,6.3,9.6,35,0.00,,CLR,0.00,VWS V14.01,2013-05-02 19:55:00,
2013-05-02 16:00:00,73.0,43.8,30.27,South,180,4.9,5.8,35,0.00,,CLR,0.00,VWS V14.01,2013-05-02 20:00:00,
2013-05-02 16:05:00,73.6,44.3,30.27,South,180,3.8,4.0,35,0.00,,CLR,0.00,VWS V14.01,2013-05-02 20:05:00,
2013-05-02 16:10:00,73.2,44.0,30.27,SW,225,4.0,5.8,35,0.00,,CLR,0.00,VWS V14.01,2013-05-02 20:10:00,
2013-05-02 16:15:00,73.2,45.4,30.27,SW,225,0.0,4.3,37,0.00,,CLR,0.00,VWS V14.01,2013-05-02 20:15:00,
2013-05-02 16:20:00,72.9,45.1,30.27,SW,225,2.0,4.0,37,0.00,,CLR,0.00,VWS V14.01,2013-05-02 20:20:00,
2013-05-02 16:25:00,72.5,44.1,30.27,South,180,3.8,4.3,36,0.00,,CLR,0.00,VWS V14.01,2013-05-02 20:25:00,
2013-05-02 16:30:00,72.1,44.5,30.27,SSW,202,3.4,6.0,37,0.00,,CLR,0.00,VWS V14.01,2013-05-02 20:30:00,
2013-05-02 16:35:00,71.8,44.8,30.27,SW,225,2.7,5.8,38,0.00,,CLR,0.00,VWS V14.01,2013-05-02 20:35:00,
2013-05-02 16:40:00,71.6,45.4,30.27,SW,225,2.0,8.7,39,0.00,,CLR,0.00,VWS V14.01,2013-05-02 20:40:00,
2013-05-02 16:45:00,71.6,44.7,30.27,South,180,4.0,8.5,38,0.00,,CLR,0.00,VWS V14.01,2013-05-02 20:45:00,
2013-05-02 16:50:00,72.7,46.3,30.27,SSW,202,3.6,3.6,39,0.00,,CLR,0.00,VWS V14.01,2013-05-02 20:50:00,
2013-05-02 16:55:00,72.1,45.8,30.27,South,180,4.0,5.4,39,0.00,,CLR,0.00,VWS V14.01,2013-05-02 20:55:00,
2013-05-02 17:00:00,72.0,45.0,30.24,South,180,4.9,9.8,38,0.00,,SCT070,0.00,VWS V14.01,2013-05-02 21:00:00,
2013-05-02 17:05:00,72.0,46.3,30.24,South,180,6.3,7.2,40,0.00,,SCT070,0.00,VWS V14.01,2013-05-02 21:05:00,
2013-05-02 17:10:00,72.0,45.7,30.24,SE,135,2.9,7.8,39,0.00,,SCT070,0.00,VWS V14.01,2013-05-02 21:10:00,
2013-05-02 17:15:00,72.3,46.0,30.24,WSW,248,2.0,7.4,39,0.00,,SCT070,0.00,VWS V14.01,2013-05-02 21:15:00,
2013-05-02 17:20:00,72.7,47.0,30.24,WSW,248,2.5,4.9,40,0.00,,SCT070,0.00,VWS V14.01,2013-05-02 21:20:00,
2013-05-02 17:25:00,72.7,46.3,30.24,SSW,202,4.7,5.4,39,0.00,,SCT070,0.00,VWS V14.01,2013-05-02 21:25:00,
2013-05-02 17:30:00,72.5,46.2,30.24,South,180,2.2,9.4,39,0.00,,SCT070,0.00,VWS V14.01,2013-05-02 21:30:00,
2013-05-02 17:35:00,73.0,46.6,30.24,North,0,5.4,5.4,39,0.00,,SCT070,0.00,VWS V14.01,2013-05-02 21:35:00,
2013-05-02 17:40:00,74.5,46.5,30.24,East,90,1.1,5.6,37,0.00,,SCT070,0.00,VWS V14.01,2013-05-02 21:40:00,
2013-05-02 17:45:00,74.7,46.7,30.24,ESE,112,3.6,5.6,37,0.00,,SCT070,0.00,VWS V14.01,2013-05-02 21:45:00,
2013-05-02 17:50:00,74.3,46.4,30.24,SSE,158,6.0,6.3,37,0.00,,SCT070,0.00,VWS V14.01,2013-05-02 21:50:00,
2013-05-02 17:55:00,74.3,45.7,30.24,West,270,2.7,7.2,36,0.00,,SCT070,0.00,VWS V14.01,2013-05-02 21:55:00,
2013-05-02 18:00:00,75.0,46.3,30.24,ESE,112,3.6,4.7,36,0.00,,SCT070,0.00,VWS V14.01,2013-05-02 22:00:00,
2013-05-02 18:05:00,75.2,45.7,30.24,NW,315,3.4,6.9,35,0.00,,BKN060,0.00,VWS V14.01,2013-05-02 22:05:00,
2013-05-02 18:10:00,74.7,45.2,30.24,South,180,3.6,6.5,35,0.00,,BKN060,0.00,VWS V14.01,2013-05-02 22:10:00,
2013-05-02 18:15:00,73.2,44.7,30.24,South,180,1.1,6.0,36,0.00,,BKN060,0.00,VWS V14.01,2013-05-02 22:15:00,
2013-05-02 18:20:00,72.7,44.2,30.24,South,180,3.4,4.9,36,0.00,,BKN060,0.00,VWS V14.01,2013-05-02 22:20:00,
2013-05-02 18:25:00,72.3,44.6,30.24,SSW,202,2.7,5.6,37,0.00,,BKN060,0.00,VWS V14.01,2013-05-02 22:25:00,
2013-05-02 18:30:00,71.6,44.7,30.24,South,180,5.6,6.3,38,0.00,,BKN060,0.00,VWS V14.01,2013-05-02 22:30:00,
2013-05-02 18:35:00,70.7,44.5,30.24,East,90,5.8,7.2,39,0.00,,BKN060,0.00,VWS V14.01,2013-05-02 22:35:00,
2013-05-02 18:40:00,70.5,45.7,30.24,SSW,202,5.8,5.8,41,0.00,,BKN060,0.00,VWS V14.01,2013-05-02 22:40:00,
2013-05-02 18:45:00,70.5,45.1,30.24,SW,225,2.7,6.7,40,0.00,,BKN060,0.00,VWS V14.01,2013-05-02 22:45:00,
2013-05-02 18:50:00,70.7,45.9,30.24,WSW,248,2.7,6.3,41,0.00,,BKN060,0.00,VWS V14.01,2013-05-02 22:50:00,
2013-05-02 18:55:00,70.5,46.3,30.24,SSE,158,2.9,3.8,42,0.00,,BKN060,0.00,VWS V14.01,2013-05-02 22:55:00,
2013-05-02 19:00:00,70.3,44.9,30.24,South,180,5.4,5.8,40,0.00,,BKN060,0.00,VWS V14.01,2013-05-02 23:00:00,
2013-05-02 19:05:00,70.3,44.2,30.24,South,180,3.4,3.8,39,0.00,,CLR,0.00,VWS V14.01,2013-05-02 23:05:00,
2013-05-02 19:10:00,69.8,43.8,30.24,WNW,292,4.9,4.9,39,0.00,,CLR,0.00,VWS V14.01,2013-05-02 23:10:00,
2013-05-02 19:15:00,69.3,43.9,30.24,West,270,3.1,12.3,40,0.00,,CLR,0.00,VWS V14.01,2013-05-02 23:15:00,
2013-05-02 19:20:00,69.1,44.4,30.24,SE,135,6.0,6.0,41,0.00,,CLR,0.00,VWS V14.01,2013-05-02 23:20:00,
2013-05-02 19:25:00,69.1,44.4,30.24,West,270,2.2,5.6,41,0.00,,CLR,0.00,VWS V14.01,2013-05-02 23:25:00,
2013-05-02 19:30:00,68.7,44.7,30.24,SE,135,4.0,4.0,42,0.00,,CLR,0.00,VWS V14.01,2013-05-02 23:30:00,
2013-05-02 19:35:00,68.2,44.2,30.24,SSW,202,2.9,4.3,42,0.00,,CLR,0.00,VWS V14.01,2013-05-02 23:35:00,
2013-05-02 19:40:00,67.6,44.4,30.24,South,180,2.7,3.1,43,0.00,,CLR,0.00,VWS V14.01,2013-05-02 23:40:00,
2013-05-02 19:45:00,67.1,43.9,30.24,SW,225,0.9,2.7,43,0.00,,CLR,0.00,VWS V14.01,2013-05-02 23:45:00,
2013-05-02 19:50:00,66.6,44.0,30.24,SW,225,2.0,2.7,44,0.00,,CLR,0.00,VWS V14.01,2013-05-02 23:50:00,
2013-05-02 19:55:00,66.0,43.5,30.24,WSW,248,1.3,2.0,44,0.00,,CLR,0.00,VWS V14.01,2013-05-02 23:55:00,
2013-05-02 20:00:00,65.7,43.8,30.24,South,180,0.0,2.0,45,0.00,,CLR,0.00,VWS V14.01,2013-05-03 00:00:00,
2013-05-02 20:05:00,64.8,43.5,30.24,South,180,0.0,2.5,46,0.00,,CLR,0.00,VWS V14.01,2013-05-03 00:05:00,
2013-05-02 20:10:00,63.9,43.3,30.24,SSE,158,0.9,2.2,47,0.00,,CLR,0.00,VWS V14.01,2013-05-03 00:10:00,
2013-05-02 20:15:00,63.0,43.5,30.24,NE,45,0.0,1.6,49,0.00,,CLR,0.00,VWS V14.01,2013-05-03 00:15:00,
2013-05-02 20:20:00,62.1,43.2,30.27,South,180,1.3,3.6,50,0.00,,CLR,0.00,VWS V14.01,2013-05-03 00:20:00,
2013-05-02 20:24:00,62.1,44.8,30.27,NNW,338,2.2,3.6,53,0.00,,CLR,0.00,VWS V14.01,2013-05-03 00:24:00,
2013-05-02 20:29:00,61.3,44.6,30.27,SSW,202,0.0,2.9,54,0.00,,CLR,0.00,VWS V14.01,2013-05-03 00:29:00,
2013-05-02 20:34:00,61.2,44.9,30.27,NE,45,2.0,2.2,55,0.00,,CLR,0.00,VWS V14.01,2013-05-03 00:34:00,
2013-05-02 20:39:00,60.6,44.4,30.27,ESE,112,0.9,1.1,55,0.00,,CLR,0.00,VWS V14.01,2013-05-03 00:39:00,
2013-05-02 20:44:00,60.4,45.6,30.27,West,270,2.7,2.7,58,0.00,,CLR,0.00,VWS V14.01,2013-05-03 00:44:00,
2013-05-02 20:49:00,60.1,46.2,30.27,SSE,158,3.1,3.1,60,0.00,,CLR,0.00,VWS V14.01,2013-05-03 00:49:00,
2013-05-02 20:54:00,59.7,45.8,30.27,NNW,338,0.0,2.9,60,0.00,,CLR,0.00,VWS V14.01,2013-05-03 00:54:00,
2013-05-02 20:59:00,59.5,45.7,30.27,West,270,0.0,2.2,60,0.00,,CLR,0.00,VWS V14.01,2013-05-03 00:59:00,
2013-05-02 21:04:00,60.8,47.3,30.27,South,180,2.9,6.5,61,0.00,,CLR,0.00,VWS V14.01,2013-05-03 01:04:00,
2013-05-02 21:09:00,61.3,47.8,30.27,South,180,4.0,6.5,61,0.00,,CLR,0.00,VWS V14.01,2013-05-03 01:09:00,
2013-05-02 21:14:00,61.3,47.3,30.27,South,180,3.4,3.4,60,0.00,,CLR,0.00,VWS V14.01,2013-05-03 01:14:00,
2013-05-02 21:19:00,61.0,47.0,30.27,South,180,2.5,3.1,60,0.00,,CLR,0.00,VWS V14.01,2013-05-03 01:19:00,
2013-05-02 21:24:00,60.4,46.5,30.27,SSW,202,2.7,2.7,60,0.00,,CLR,0.00,VWS V14.01,2013-05-03 01:24:00,
2013-05-02 21:29:00,60.3,46.8,30.27,NNE,22,2.9,3.6,61,0.00,,CLR,0.00,VWS V14.01,2013-05-03 01:29:00,
2013-05-02 21:34:00,59.7,46.3,30.27,East,90,0.9,3.8,61,0.00,,CLR,0.00,VWS V14.01,2013-05-03 01:34:00,
2013-05-02 21:39:00,59.0,45.6,30.27,North,0,0.0,0.0,61,0.00,,CLR,0.00,VWS V14.01,2013-05-03 01:39:00,
2013-05-02 21:44:00,58.5,45.9,30.27,SW,225,1.1,5.8,63,0.00,,CLR,0.00,VWS V14.01,2013-05-03 01:44:00,
2013-05-02 21:49:00,58.3,46.2,30.27,East,90,2.7,2.7,64,0.00,,CLR,0.00,VWS V14.01,2013-05-03 01:49:00,
2013-05-02 21:54:00,57.9,45.8,30.27,East,90,0.0,1.1,64,0.00,,CLR,0.00,VWS V14.01,2013-05-03 01:54:00,
2013-05-02 21:59:00,57.2,45.6,30.27,South,180,0.0,0.0,65,0.00,,CLR,0.00,VWS V14.01,2013-05-03 01:59:00,
2013-05-02 22:04:00,57.0,45.8,30.27,WSW,248,2.5,2.5,66,0.00,,CLR,0.00,VWS V14.01,2013-05-03 02:04:00,
2013-05-02 22:09:00,57.2,46.4,30.27,SW,225,1.3,2.5,67,0.00,,CLR,0.00,VWS V14.01,2013-05-03 02:09:00,
2013-05-02 22:14:00,57.0,47.7,30.27,East,90,4.3,4.3,71,0.00,,CLR,0.00,VWS V14.01,2013-05-03 02:14:00,
2013-05-02 22:19:00,56.8,46.8,30.27,SW,225,2.0,2.7,69,0.00,,CLR,0.00,VWS V14.01,2013-05-03 02:19:00,
2013-05-02 22:24:00,57.0,47.3,30.27,West,270,2.7,3.4,70,0.00,,CLR,0.00,VWS V14.01,2013-05-03 02:24:00,
2013-05-02 22:29:00,57.0,47.7,30.27,West,270,1.6,5.8,71,0.00,,CLR,0.00,VWS V14.01,2013-05-03 02:29:00,
2013-05-02 22:34:00,57.4,47.7,30.27,SSE,158,3.8,4.9,70,0.00,,CLR,0.00,VWS V14.01,2013-05-03 02:34:00,
2013-05-02 22:39:00,57.4,47.7,30.27,ENE,68,1.1,3.4,70,0.00,,CLR,0.00,VWS V14.01,2013-05-03 02:39:00,
2013-05-02 22:45:00,57.6,47.9,30.24,South,180,0.9,7.2,70,0.00,,CLR,0.00,VWS V14.01,2013-05-03 02:45:00,
2013-05-02 22:50:00,57.2,47.9,30.24,South,180,1.3,4.0,71,0.00,,CLR,0.00,VWS V14.01,2013-05-03 02:50:00,
2013-05-02 22:56:00,57.4,47.7,30.24,SSW,202,1.6,3.8,70,0.00,,CLR,0.00,VWS V14.01,2013-05-03 02:56:00,
2013-05-02 23:01:00,57.4,47.7,30.27,South,180,1.6,4.0,70,0.00,,CLR,0.00,VWS V14.01,2013-05-03 03:01:00,
2013-05-02 23:03:00,55.6,46.7,30.27,SSE,158,2.5,3.8,72,0.00,,CLR,0.00,VWS V14.01,2013-05-03 03:03:00,
2013-05-02 23:04:00,55.8,46.9,30.27,SW,225,3.1,4.3,72,0.00,,CLR,0.00,VWS V14.01,2013-05-03 03:04:00,
2013-05-02 23:05:00,55.8,46.9,30.27,South,180,1.6,4.3,72,0.00,,CLR,0.00,VWS V14.01,2013-05-03 03:05:00,
2013-05-02 23:06:00,57.0,47.7,30.27,SE,135,3.8,6.3,71,0.00,,CLR,0.00,VWS V14.01,2013-05-03 03:06:00,
2013-05-02 23:07:00,55.8,46.5,30.27,South,180,2.0,3.8,71,0.00,,CLR,0.00,VWS V14.01,2013-05-03 03:07:00,
2013-05-02 23:08:00,55.9,47.1,30.27,SW,225,4.3,4.7,72,0.00,,CLR,0.00,VWS V14.01,2013-05-03 03:08:00,
2013-05-02 23:11:00,56.7,47.4,30.27,NE,45,2.0,3.4,71,0.00,,CLR,0.00,VWS V14.01,2013-05-03 03:11:00,
2013-05-02 23:16:00,56.3,47.0,30.24,SE,135,0.0,3.6,71,0.00,,CLR,0.00,VWS V14.01,2013-05-03 03:16:00,
2013-05-02 23:21:00,55.8,46.1,30.24,SSW,202,0.0,1.1,70,0.00,,CLR,0.00,VWS V14.01,2013-05-03 03:21:00,
2013-05-02 23:26:00,55.6,46.3,30.24,West,270,0.9,2.2,71,0.00,,CLR,0.00,VWS V14.01,2013-05-03 03:26:00,
2013-05-02 23:31:00,56.3,47.8,30.27,ENE,68,2.0,6.9,73,0.00,,CLR,0.00,VWS V14.01,2013-05-03 03:31:00,
2013-05-02 23:36:00,56.3,47.0,30.27,NE,45,0.9,4.3,71,0.00,,CLR,0.00,VWS V14.01,2013-05-03 03:36:00,
2013-05-02 23:41:00,55.4,46.2,30.27,NNE,22,0.9,2.0,71,0.00,,CLR,0.00,VWS V14.01,2013-05-03 03:41:00,
2013-05-02 23:46:00,55.6,46.7,30.27,SE,135,0.0,5.4,72,0.00,,CLR,0.00,VWS V14.01,2013-05-03 03:46:00,
2013-05-02 23:51:00,55.0,46.2,30.27,NE,45,0.9,2.2,72,0.00,,CLR,0.00,VWS V14.01,2013-05-03 03:51:00,
2013-05-02 23:56:00,55.2,46.7,30.27,WSW,248,2.7,3.1,73,0.00,,CLR,0.00,VWS V14.01,2013-05-03 03:56:00,